Time;durP1;ratioP1;P1;durP2;ratioP2;P2;SDS_P1;SDS_P2;PMS_P1;PMS_P2;Temp;Humidity;BMP_temperature;BMP_pressure;BME280_temperature;BME280_humidity;BME280_pressure;Samples;Min_cycle;Max_cycle;Signal;HPM_P1;HPM_P2
2024/04/21 00:00:00;;;;;;;13.83;6.27;;;2.30;99.90;;;;;;5526210;25;20331;-65
2024/04/21 00:02:47;;;;;;;11.40;5.53;;;2.30;99.90;;;;;;5537784;25;20268;-65
2024/04/21 00:05:39;;;;;;;9.10;5.10;;;2.30;99.90;;;;;;5536776;25;20283;-65
2024/04/21 00:08:25;;;;;;;10.57;5.13;;;2.30;99.90;;;;;;5519329;25;20322;-65
2024/04/21 00:11:15;;;;;;;9.43;5.73;;;2.20;1.00;;;;;;5544792;25;20272;-65
2024/04/21 00:14:01;;;;;;;13.37;5.27;;;2.20;1.00;;;;;;5524124;25;20228;-65
2024/04/21 00:16:51;;;;;;;9.07;5.10;;;2.10;1.00;;;;;;5519922;25;20341;-65
2024/04/21 00:19:37;;;;;;;4.90;2.80;;;2.20;93.00;;;;;;5525336;25;20694;-65
2024/04/21 00:22:29;;;;;;;7.97;4.90;;;2.10;13.40;;;;;;5558024;25;20217;-65
2024/04/21 00:25:16;;;;;;;6.23;1.80;;;2.10;99.90;;;;;;5566331;25;20225;-65
2024/04/21 00:28:06;;;;;;;12.37;5.13;;;2.10;99.90;;;;;;5491532;25;20224;-65
2024/04/21 00:30:52;;;;;;;8.73;4.77;;;2.10;25.00;;;;;;5524915;25;20290;-66
2024/04/21 00:33:42;;;;;;;13.30;5.53;;;2.10;74.40;;;;;;5494544;25;20267;-65
2024/04/21 00:36:28;;;;;;;14.13;4.60;;;2.10;99.90;;;;;;5489568;25;20236;-66
2024/04/21 00:39:20;;;;;;;11.23;5.90;;;2.10;99.90;;;;;;5481472;26;20332;-66
2024/04/21 00:42:07;;;;;;;9.33;4.93;;;2.10;99.90;;;;;;5489712;26;20337;-65
2024/04/21 00:44:56;;;;;;;13.07;4.87;;;2.10;99.90;;;;;;5481941;26;20220;-65
2024/04/21 00:47:43;;;;;;;6.60;3.70;;;2.00;99.90;;;;;;5495264;26;20672;-66
2024/04/21 00:50:34;;;;;;;8.17;4.83;;;2.00;99.90;;;;;;5486221;26;20284;-65
2024/04/21 00:53:21;;;;;;;5.73;3.50;;;2.00;99.90;;;;;;5486598;26;20284;-65
2024/04/21 00:56:13;;;;;;;10.20;5.80;;;1.90;99.90;;;;;;5511692;25;20224;-65
2024/04/21 00:59:00;;;;;;;11.67;6.57;;;1.90;99.90;;;;;;5484281;26;20753;-65
2024/04/21 01:01:49;;;;;;;10.90;4.73;;;1.90;99.90;;;;;;5498289;26;20220;-67
2024/04/21 01:04:39;;;;;;;16.23;6.53;;;1.90;99.90;;;;;;5494900;26;20232;-65
2024/04/21 01:07:25;;;;;;;10.63;5.27;;;1.90;99.90;;;;;;5490550;25;20778;-65
2024/04/21 01:10:15;;;;;;;4.57;1.70;;;1.90;99.90;;;;;;5492662;25;20283;-65
2024/04/21 01:13:11;;;;;;;9.40;5.63;;;1.80;99.90;;;;;;5495202;26;20577;-65
2024/04/21 01:16:00;;;;;;;9.37;5.40;;;1.80;99.90;;;;;;5501647;26;20220;-65
2024/04/21 01:18:47;;;;;;;14.37;6.50;;;1.70;99.90;;;;;;5493181;26;20279;-65
2024/04/21 01:21:37;;;;;;;10.33;6.10;;;1.80;99.90;;;;;;5501665;26;20309;-65
2024/04/21 01:24:26;;;;;;;9.47;6.23;;;1.70;99.90;;;;;;5509678;25;20237;-65
2024/04/21 01:27:16;;;;;;;11.60;6.60;;;1.70;99.90;;;;;;5487418;25;20733;-64
2024/04/21 01:30:02;;;;;;;12.27;7.43;;;1.70;99.90;;;;;;5516099;26;20702;-65
2024/04/21 01:32:52;;;;;;;13.97;6.90;;;1.70;99.90;;;;;;5501189;25;20225;-66
2024/04/21 01:35:38;;;;;;;12.43;4.83;;;1.80;99.90;;;;;;5503368;25;20290;-65
2024/04/21 01:38:28;;;;;;;13.60;6.70;;;1.70;1.00;;;;;;5507309;25;20801;-65
2024/04/21 01:41:17;;;;;;;15.00;6.23;;;1.70;1.00;;;;;;5501964;25;20239;-66
2024/04/21 01:44:07;;;;;;;13.53;6.30;;;1.60;99.90;;;;;;5496166;25;20237;-65
2024/04/21 01:46:53;;;;;;;13.40;6.90;;;1.70;99.90;;;;;;5499735;26;20338;-65
2024/04/21 01:49:44;;;;;;;15.83;7.60;;;1.60;99.90;;;;;;5489272;26;20228;-66
2024/04/21 01:52:31;;;;;;;15.90;5.73;;;1.60;99.90;;;;;;5501282;25;20266;-65
2024/04/21 01:55:20;;;;;;;12.07;5.83;;;1.60;99.90;;;;;;5504496;25;20227;-66
2024/04/21 01:58:09;;;;;;;10.60;4.90;;;1.50;99.90;;;;;;5503512;25;20730;-65
2024/04/21 02:00:59;;;;;;;14.20;7.27;;;1.50;99.90;;;;;;5517055;25;20623;-65
2024/04/21 02:03:48;;;;;;;12.67;7.43;;;1.50;99.90;;;;;;5504399;25;20228;-65
2024/04/21 02:06:35;;;;;;;11.63;7.33;;;1.50;99.90;;;;;;5535375;25;20302;-66
2024/04/21 02:09:24;;;;;;;16.30;7.47;;;1.50;99.90;;;;;;5519219;25;20773;-65
2024/04/21 02:12:11;;;;;;;10.33;6.10;;;1.50;99.90;;;;;;5483321;25;20302;-65
2024/04/21 02:15:03;;;;;;;12.07;7.00;;;1.40;99.90;;;;;;5519051;25;20307;-65
2024/04/21 02:17:50;;;;;;;10.30;6.60;;;1.50;99.90;;;;;;5492214;26;20819;-65
2024/04/21 02:20:39;;;;;;;13.37;7.07;;;1.40;99.90;;;;;;5520675;25;20712;-65
2024/04/21 02:23:26;;;;;;;8.60;5.00;;;1.40;99.90;;;;;;5522318;25;20288;-65
2024/04/21 02:26:15;;;;;;;10.60;6.10;;;1.50;99.90;;;;;;5487487;26;20224;-66
2024/04/21 02:29:01;;;;;;;12.33;7.43;;;1.40;99.90;;;;;;5525682;25;20234;-65
2024/04/21 02:31:53;;;;;;;14.43;7.10;;;1.40;99.90;;;;;;5526229;25;20727;-66
2024/04/21 02:34:40;;;;;;;11.63;7.13;;;1.40;99.90;;;;;;5504390;25;20296;-65
2024/04/21 02:37:30;;;;;;;15.30;8.30;;;1.40;99.90;;;;;;5517182;25;20231;-65
2024/04/21 02:40:17;;;;;;;9.90;5.93;;;1.40;99.90;;;;;;5475115;26;20325;-65
2024/04/21 02:43:06;;;;;;;2.30;1.33;;;1.40;99.90;;;;;;5501407;26;20335;-65
2024/04/21 02:45:56;;;;;;;10.97;5.83;;;1.40;99.90;;;;;;5508556;25;20811;-65
2024/04/21 02:48:45;;;;;;;7.90;4.63;;;1.40;99.90;;;;;;5484685;26;20296;-65
2024/04/21 02:51:34;;;;;;;6.23;3.13;;;1.40;99.90;;;;;;5504171;25;20707;-65
2024/04/21 02:54:25;;;;;;;13.17;7.00;;;1.30;30.70;;;;;;5506976;25;20288;-65
2024/04/21 02:57:15;;;;;;;10.00;6.30;;;1.30;99.90;;;;;;5510193;25;20336;-65
2024/04/21 03:00:05;;;;;;;6.53;3.00;;;1.30;99.90;;;;;;5494604;26;20274;-65
2024/04/21 03:02:52;;;;;;;19.63;9.40;;;1.30;99.90;;;;;;5507521;25;20574;-65
2024/04/21 03:05:44;;;;;;;6.50;4.07;;;1.30;99.90;;;;;;5518457;25;20337;-65
2024/04/21 03:08:31;;;;;;;16.00;8.57;;;1.40;99.90;;;;;;5507314;26;20227;-65
2024/04/21 03:11:20;;;;;;;14.43;5.53;;;1.40;99.90;;;;;;5530394;25;20634;-65
2024/04/21 03:14:07;;;;;;;19.67;9.80;;;1.40;99.90;;;;;;5509189;25;20231;-65
2024/04/21 03:16:56;;;;;;;17.90;10.17;;;1.30;99.90;;;;;;5516072;25;20228;-66
2024/04/21 03:19:43;;;;;;;22.20;10.27;;;1.30;99.90;;;;;;5514139;25;20249;-65
2024/04/21 03:22:35;;;;;;;17.40;9.77;;;1.30;1.00;;;;;;5534946;25;20680;-65
2024/04/21 03:25:21;;;;;;;17.97;9.57;;;1.30;1.00;;;;;;5523124;25;20239;-65
2024/04/21 03:28:11;;;;;;;4.43;2.37;;;1.30;1.00;;;;;;5513125;25;20223;-65
2024/04/21 03:30:58;;;;;;;18.53;10.40;;;1.30;1.00;;;;;;5515389;26;20227;-65
2024/04/21 03:33:47;;;;;;;17.33;9.13;;;1.20;1.00;;;;;;5496951;25;20267;-65
2024/04/21 03:36:36;;;;;;;15.37;9.10;;;1.20;99.90;;;;;;5520659;25;20333;-65
2024/04/21 03:39:28;;;;;;;19.70;10.40;;;1.30;99.90;;;;;;5514254;25;20649;-65
2024/04/21 03:42:17;;;;;;;8.67;4.13;;;1.20;99.90;;;;;;5510704;25;20670;-66
2024/04/21 03:45:08;;;;;;;4.77;2.67;;;1.20;99.90;;;;;;5521933;25;20295;-65
2024/04/21 03:47:55;;;;;;;20.03;10.63;;;1.20;99.90;;;;;;5512260;25;20292;-66
2024/04/21 03:50:44;;;;;;;16.87;10.07;;;1.20;99.90;;;;;;5515796;25;20642;-65
2024/04/21 03:53:31;;;;;;;19.43;10.77;;;1.10;99.90;;;;;;5513826;26;20223;-65
2024/04/21 03:56:23;;;;;;;12.00;5.67;;;1.20;99.90;;;;;;5495576;25;1060935;-65
2024/04/21 03:59:09;;;;;;;19.83;11.17;;;1.20;99.90;;;;;;5536472;25;20270;-65
2024/04/21 04:01:59;;;;;;;7.27;2.70;;;1.10;99.90;;;;;;5557760;25;20558;-65
2024/04/21 04:04:45;;;;;;;21.73;11.33;;;1.20;99.90;;;;;;5556163;25;20281;-65
2024/04/21 04:07:35;;;;;;;21.60;12.33;;;1.00;99.90;;;;;;5536307;25;20350;-65
2024/04/21 04:10:21;;;;;;;18.33;10.17;;;1.00;99.90;;;;;;5552843;25;20249;-65
2024/04/21 04:13:13;;;;;;;11.97;6.33;;;1.10;1.00;;;;;;5565493;25;20336;-65
2024/04/21 04:16:00;;;;;;;21.07;11.07;;;1.20;1.00;;;;;;5552878;25;20557;-65
2024/04/21 04:18:49;;;;;;;19.60;10.53;;;1.10;1.00;;;;;;5540801;25;20217;-65
2024/04/21 04:21:36;;;;;;;7.93;4.53;;;1.10;1.00;;;;;;5540900;25;20789;-65
2024/04/21 04:24:25;;;;;;;21.03;10.67;;;1.20;1.00;;;;;;5545267;25;20281;-65
2024/04/21 04:27:12;;;;;;;23.10;12.30;;;1.20;1.00;;;;;;5535249;25;20546;-65
2024/04/21 04:30:04;;;;;;;18.87;11.03;;;1.10;1.00;;;;;;5528541;25;20278;-66
2024/04/21 04:32:50;;;;;;;17.87;9.30;;;1.10;1.00;;;;;;5544414;25;20299;-66
2024/04/21 04:35:40;;;;;;;17.70;10.10;;;1.20;1.00;;;;;;5543066;25;20227;-65
2024/04/21 04:38:27;;;;;;;8.00;4.63;;;1.20;1.00;;;;;;5550388;25;20228;-66
2024/04/21 04:41:16;;;;;;;20.00;11.03;;;1.20;1.00;;;;;;5561823;25;20224;-65
2024/04/21 04:44:03;;;;;;;19.07;10.27;;;1.10;1.00;;;;;;5553685;25;20233;-67
2024/04/21 04:46:55;;;;;;;20.97;11.33;;;1.20;1.00;;;;;;5561128;25;20223;-65
2024/04/21 04:49:41;;;;;;;17.70;9.33;;;1.10;1.00;;;;;;5556013;25;20289;-65
2024/04/21 04:52:31;;;;;;;16.10;8.00;;;1.20;1.00;;;;;;5538495;25;20300;-65
2024/04/21 04:55:17;;;;;;;15.33;7.43;;;1.10;1.00;;;;;;5525071;25;20331;-65
2024/04/21 04:58:07;;;;;;;21.50;10.30;;;1.10;1.00;;;;;;5508727;25;20226;-65
2024/04/21 05:00:54;;;;;;;21.30;11.50;;;1.10;1.00;;;;;;5512871;25;20229;-65
2024/04/21 05:03:46;;;;;;;22.80;11.27;;;1.10;1.00;;;;;;5503125;25;20550;-66
2024/04/21 05:06:33;;;;;;;23.00;10.93;;;1.10;1.00;;;;;;5490432;26;20281;-66
2024/04/21 05:09:23;;;;;;;22.73;11.57;;;1.20;1.00;;;;;;5510175;25;20228;-65
2024/04/21 05:12:09;;;;;;;20.63;10.27;;;1.20;1.00;;;;;;5486600;26;20270;-66
2024/04/21 05:14:59;;;;;;;20.90;10.20;;;1.30;1.00;;;;;;5510601;25;20794;-65
2024/04/21 05:17:45;;;;;;;21.77;11.87;;;1.40;1.00;;;;;;5510464;25;20240;-65
2024/04/21 05:20:37;;;;;;;22.67;11.63;;;1.40;1.00;;;;;;5528757;25;20306;-66
2024/04/21 05:23:24;;;;;;;22.33;8.33;;;1.50;1.00;;;;;;5501140;26;20273;-66
2024/04/21 05:26:13;;;;;;;27.90;13.07;;;1.50;99.90;;;;;;5520459;25;20327;-66
2024/04/21 05:29:00;;;;;;;28.47;13.27;;;1.40;1.00;;;;;;5498876;26;20229;-65
2024/04/21 05:31:49;;;;;;;28.00;13.27;;;1.50;99.90;;;;;;5522485;25;20219;-65
2024/04/21 05:34:36;;;;;;;33.70;14.33;;;1.50;79.00;;;;;;5513284;25;20232;-65
2024/04/21 05:37:28;;;;;;;33.50;13.60;;;1.40;1.00;;;;;;5508407;25;20327;-65
2024/04/21 05:40:15;;;;;;;31.17;13.13;;;1.30;1.00;;;;;;5487546;25;20240;-65
2024/04/21 05:43:05;;;;;;;28.87;12.90;;;1.50;45.40;;;;;;5495344;25;20220;-65
2024/04/21 05:45:59;;;;;;;29.60;13.77;;;1.50;1.00;;;;;;5481152;26;20331;-64
2024/04/21 05:48:49;;;;;;;36.57;13.83;;;1.40;1.00;;;;;;5495191;25;20853;-65
2024/04/21 05:51:35;;;;;;;38.73;15.00;;;1.50;1.00;;;;;;5514358;25;20262;-64
2024/04/21 05:54:27;;;;;;;39.97;15.23;;;1.50;1.00;;;;;;5498140;26;20224;-64
2024/04/21 05:57:14;;;;;;;27.87;11.90;;;1.50;14.40;;;;;;5499937;25;20246;-64
2024/04/21 06:00:03;;;;;;;34.20;13.67;;;1.50;1.00;;;;;;5487384;26;20280;-65
2024/04/21 06:02:50;;;;;;;29.23;13.30;;;1.60;1.00;;;;;;5501264;25;20234;-65
2024/04/21 06:05:39;;;;;;;29.60;12.57;;;1.60;1.00;;;;;;5508921;25;20591;-64
2024/04/21 06:08:29;;;;;;;42.03;14.87;;;1.60;1.00;;;;;;5509389;25;20330;-66
2024/04/21 06:11:18;;;;;;;32.03;15.33;;;1.60;1.00;;;;;;5513815;25;20820;-64
2024/04/21 06:14:10;;;;;;;38.60;15.27;;;1.60;1.00;;;;;;5521429;25;20229;-64
2024/04/21 06:16:57;;;;;;;32.40;14.53;;;1.50;1.00;;;;;;5509533;25;20239;-64
2024/04/21 06:19:46;;;;;;;33.70;14.53;;;1.50;1.00;;;;;;5494516;25;20232;-64
2024/04/21 06:22:33;;;;;;;25.63;11.97;;;1.50;1.00;;;;;;5525135;25;20269;-65
2024/04/21 06:25:23;;;;;;;31.93;14.50;;;1.50;1.00;;;;;;5528220;25;20224;-64
2024/04/21 06:28:12;;;;;;;32.93;14.77;;;1.50;1.00;;;;;;5483240;26;20255;-65
2024/04/21 06:31:01;;;;;;;29.47;13.00;;;1.50;32.00;;;;;;5507692;25;20226;-64
2024/04/21 06:33:48;;;;;;;29.67;12.40;;;1.50;99.90;;;;;;5508423;25;20361;-64
2024/04/21 06:36:37;;;;;;;22.03;10.90;;;1.60;99.90;;;;;;5524332;25;20579;-64
2024/04/21 06:39:24;;;;;;;8.73;4.27;;;1.50;99.90;;;;;;5514072;25;20264;-67
2024/04/21 06:42:13;;;;;;;29.23;13.53;;;1.50;1.00;;;;;;5476320;25;20224;-65
2024/04/21 06:45:03;;;;;;;21.03;12.20;;;1.50;1.00;;;;;;5492243;26;20278;-64
2024/04/21 06:47:52;;;;;;;28.27;13.57;;;1.50;99.90;;;;;;5514504;25;20312;-65
2024/04/21 06:50:42;;;;;;;25.20;13.47;;;1.50;99.90;;;;;;5520845;25;20337;-65
2024/04/21 06:53:30;;;;;;;24.37;11.57;;;1.60;1.00;;;;;;5496245;25;20537;-65
2024/04/21 06:56:19;;;;;;;26.97;14.20;;;1.60;57.80;;;;;;5544937;25;20714;-66
2024/04/21 06:59:05;;;;;;;24.60;13.20;;;1.60;38.10;;;;;;5539116;25;20299;-65
2024/04/21 07:01:58;;;;;;;22.07;11.03;;;1.60;99.90;;;;;;5528640;25;20224;-66
2024/04/21 07:04:44;;;;;;;33.97;11.90;;;1.60;1.00;;;;;;5530978;25;20291;-66
2024/04/21 07:07:33;;;;;;;28.03;13.33;;;1.60;1.00;;;;;;5541169;25;20752;-66
2024/04/21 07:10:23;;;;;;;23.90;12.70;;;1.70;1.00;;;;;;5548547;25;20321;-65
2024/04/21 07:13:11;;;;;;;22.40;11.73;;;1.70;44.40;;;;;;5535887;25;20273;-65
2024/04/21 07:16:00;;;;;;;22.83;11.87;;;1.70;99.90;;;;;;5545282;25;20714;-65
2024/04/21 07:18:50;;;;;;;20.30;11.83;;;1.70;29.00;;;;;;5528201;25;20744;-66
2024/04/21 07:21:39;;;;;;;22.50;11.43;;;1.70;1.00;;;;;;5548902;25;20225;-65
2024/04/21 07:24:25;;;;;;;22.90;10.40;;;1.80;3.30;;;;;;5558092;25;20226;-67
2024/04/21 07:27:15;;;;;;;19.20;10.57;;;1.90;99.90;;;;;;5545498;25;20230;-65
2024/04/21 07:30:02;;;;;;;25.67;12.00;;;1.60;99.90;;;;;;5554281;25;20236;-65
2024/04/21 07:32:51;;;;;;;25.83;12.60;;;1.80;23.00;;;;;;5564955;25;20222;-65
2024/04/21 07:35:40;;;;;;;16.20;8.60;;;2.10;99.90;;;;;;5579487;25;20229;-65
2024/04/21 07:38:29;;;;;;;25.57;12.23;;;2.00;1.00;;;;;;5564305;25;20747;-64
2024/04/21 07:41:16;;;;;;;22.30;12.67;;;2.00;96.00;;;;;;5548962;25;20361;-64
2024/04/21 07:44:05;;;;;;;16.93;8.03;;;2.10;99.90;;;;;;5531938;25;20270;-67
2024/04/21 07:46:52;;;;;;;19.47;10.10;;;2.20;1.00;;;;;;5534956;25;20279;-65
2024/04/21 07:49:42;;;;;;;19.13;10.60;;;2.20;1.00;;;;;;5539551;25;20288;-65
2024/04/21 07:52:32;;;;;;;21.13;10.53;;;2.40;77.20;;;;;;5553056;25;20289;-66
2024/04/21 07:55:22;;;;;;;20.53;8.87;;;2.40;1.00;;;;;;5547285;25;20264;-65
2024/04/21 07:58:08;;;;;;;19.90;10.70;;;2.50;99.90;;;;;;5549798;25;20667;-64
2024/04/21 08:00:58;;;;;;;19.13;11.20;;;2.60;99.90;;;;;;5546657;25;20274;-65
2024/04/21 08:03:44;;;;;;;20.00;10.17;;;2.30;1.00;;;;;;5537966;25;20246;-66
2024/04/21 08:06:34;;;;;;;18.93;9.60;;;2.30;93.00;;;;;;5541035;25;20277;-64
2024/04/21 08:09:23;;;;;;;19.50;9.67;;;2.60;1.00;;;;;;5563216;25;20725;-64
2024/04/21 08:12:12;;;;;;;21.57;10.10;;;2.70;99.90;;;;;;5558651;25;20227;-65
2024/04/21 08:15:03;;;;;;;17.80;10.03;;;2.60;99.90;;;;;;5557058;25;20329;-64
2024/04/21 08:17:52;;;;;;;18.43;9.63;;;2.50;99.90;;;;;;5527407;25;20267;-65
2024/04/21 08:20:39;;;;;;;6.67;3.77;;;2.50;99.90;;;;;;5540477;25;20619;-65
2024/04/21 08:23:29;;;;;;;18.13;10.07;;;2.60;99.90;;;;;;5571787;25;20713;-65
2024/04/21 08:26:18;;;;;;;16.73;8.93;;;2.60;99.90;;;;;;5544830;25;20337;-65
2024/04/21 08:29:08;;;;;;;17.43;9.87;;;2.70;1.00;;;;;;5551455;25;20223;-66
2024/04/21 08:31:54;;;;;;;14.27;7.67;;;2.60;99.90;;;;;;5532532;25;20656;-65
2024/04/21 08:34:44;;;;;;;18.27;10.23;;;2.60;99.90;;;;;;5543008;25;20326;-65
2024/04/21 08:37:30;;;;;;;20.73;10.67;;;2.60;99.90;;;;;;5524905;25;20281;-65
2024/04/21 08:40:20;;;;;;;15.20;9.57;;;2.70;1.00;;;;;;5551894;25;20617;-66
2024/04/21 08:43:10;;;;;;;6.30;2.83;;;2.60;1.00;;;;;;5538863;25;20270;-66
2024/04/21 08:45:59;;;;;;;16.90;9.93;;;2.40;99.90;;;;;;5537345;25;20231;-65
2024/04/21 08:48:48;;;;;;;10.80;6.10;;;2.30;1.00;;;;;;5548579;25;20317;-65
2024/04/21 08:51:35;;;;;;;19.47;10.90;;;2.50;1.00;;;;;;5521225;25;20298;-65
2024/04/21 08:54:25;;;;;;;11.90;6.17;;;2.50;99.90;;;;;;5535742;25;20281;-65
2024/04/21 08:57:12;;;;;;;13.93;8.17;;;2.40;1.00;;;;;;5487175;26;20275;-64
2024/04/21 09:00:05;;;;;;;18.20;9.80;;;2.50;99.90;;;;;;5487786;25;20271;-65
2024/04/21 09:02:52;;;;;;;15.77;8.93;;;2.60;99.90;;;;;;5488131;26;20236;-65
2024/04/21 09:05:41;;;;;;;21.43;10.53;;;2.60;99.90;;;;;;5499575;25;20233;-65
2024/04/21 09:08:28;;;;;;;17.10;9.80;;;2.70;1.00;;;;;;5484002;26;20758;-65
2024/04/21 09:11:17;;;;;;;20.10;10.60;;;2.70;99.90;;;;;;5483176;25;20300;-65
2024/04/21 09:14:04;;;;;;;15.97;9.60;;;2.80;99.90;;;;;;5488728;25;20290;-66
2024/04/21 09:16:56;;;;;;;16.57;9.80;;;2.80;20.70;;;;;;5492990;25;20227;-65
2024/04/21 09:19:42;;;;;;;16.60;10.40;;;2.80;99.90;;;;;;5484769;25;20611;-66
2024/04/21 09:22:32;;;;;;;17.73;10.70;;;3.00;1.00;;;;;;5487407;25;20221;-65
2024/04/21 09:25:18;;;;;;;17.37;9.27;;;2.80;99.90;;;;;;5490612;25;20295;-65
2024/04/21 09:28:08;;;;;;;17.50;10.13;;;2.80;99.90;;;;;;5482564;25;20318;-65
2024/04/21 09:30:55;;;;;;;17.83;9.30;;;2.90;99.90;;;;;;5483293;25;20296;-65
2024/04/21 09:33:49;;;;;;;9.67;6.00;;;3.00;1.00;;;;;;5484105;25;20224;-65
2024/04/21 09:36:35;;;;;;;14.63;7.10;;;3.20;44.10;;;;;;5502280;25;20267;-64
2024/04/21 09:39:25;;;;;;;16.57;9.67;;;3.20;1.00;;;;;;5492446;25;20714;-65
2024/04/21 09:42:14;;;;;;;19.30;9.83;;;3.30;99.90;;;;;;5503141;25;20296;-65
2024/04/21 09:45:01;;;;;;;19.20;9.57;;;3.30;1.00;;;;;;5485168;26;20287;-65
2024/04/21 09:47:50;;;;;;;19.10;10.40;;;3.30;1.00;;;;;;5492877;25;20587;-65
2024/04/21 09:50:39;;;;;;;17.33;10.33;;;3.30;1.00;;;;;;5504564;25;20223;-65
2024/04/21 09:53:29;;;;;;;16.13;9.87;;;3.00;1.00;;;;;;5484997;25;20701;-64
2024/04/21 09:56:23;;;;;;;15.03;9.10;;;3.20;1.00;;;;;;5485582;26;20278;-64
2024/04/21 09:59:10;;;;;;;16.60;10.83;;;3.30;90.80;;;;;;5476157;26;20257;-64
2024/04/21 10:02:00;;;;;;;16.30;10.40;;;3.30;99.90;;;;;;5482982;26;20220;-64
2024/04/21 10:04:50;;;;;;;15.63;10.47;;;3.00;1.00;;;;;;5498900;26;20275;-65
2024/04/21 10:07:43;;;;;;;19.03;10.30;;;3.30;1.00;;;;;;5482433;26;20336;-64
2024/04/21 10:10:30;;;;;;;16.80;9.23;;;3.20;99.90;;;;;;5487392;26;20702;-64
2024/04/21 10:13:19;;;;;;;17.83;10.03;;;3.20;99.90;;;;;;5489490;26;20232;-64
2024/04/21 10:16:06;;;;;;;17.87;10.70;;;3.20;1.00;;;;;;5489035;26;20224;-65
2024/04/21 10:19:04;;;;;;;16.47;8.67;;;3.10;1.00;;;;;;5493354;26;20228;-64
2024/04/21 10:21:50;;;;;;;17.87;10.77;;;3.20;99.90;;;;;;5482739;26;20228;-64
2024/04/21 10:24:44;;;;;;;19.20;11.37;;;3.20;1.00;;;;;;5484337;26;20284;-64
2024/04/21 10:27:30;;;;;;;20.77;11.43;;;3.00;99.90;;;;;;5489239;26;20232;-64
2024/04/21 10:30:20;;;;;;;19.03;10.70;;;3.20;1.00;;;;;;5485650;26;20224;-64
2024/04/21 10:33:09;;;;;;;13.27;7.37;;;3.20;1.00;;;;;;5489546;26;20327;-64
2024/04/21 10:35:59;;;;;;;13.93;7.57;;;3.30;1.00;;;;;;5487013;26;20229;-66
2024/04/21 10:38:51;;;;;;;23.70;11.87;;;3.50;1.00;;;;;;5499845;26;20300;-64
2024/04/21 10:41:46;;;;;;;24.67;13.27;;;3.50;99.90;;;;;;5496020;26;20223;-64
2024/04/21 10:44:33;;;;;;;19.97;9.60;;;3.20;1.00;;;;;;5497320;26;20742;-64
2024/04/21 10:47:22;;;;;;;20.87;9.47;;;3.50;1.00;;;;;;5477759;26;20308;-64
2024/04/21 10:50:09;;;;;;;18.60;10.57;;;3.70;1.00;;;;;;5516306;26;20243;-64
2024/04/21 10:52:58;;;;;;;24.67;10.77;;;3.80;54.40;;;;;;5486544;26;20551;-64
2024/04/21 10:55:45;;;;;;;19.27;11.20;;;4.00;99.90;;;;;;5528588;25;20231;-64
2024/04/21 10:58:37;;;;;;;18.47;10.70;;;3.70;28.00;;;;;;5521444;25;20220;-64
2024/04/21 11:01:26;;;;;;;17.27;11.13;;;3.70;99.90;;;;;;5523152;25;20235;-66
2024/04/21 11:04:15;;;;;;;20.00;7.93;;;3.70;1.00;;;;;;5530965;25;20227;-65
2024/04/21 11:07:02;;;;;;;17.10;10.50;;;3.70;99.90;;;;;;5525642;25;20267;-65
2024/04/21 11:09:52;;;;;;;16.83;10.57;;;3.70;98.90;;;;;;5521794;25;20634;-64
2024/04/21 11:12:38;;;;;;;18.13;11.17;;;3.80;1.00;;;;;;5521860;25;20239;-65
2024/04/21 11:15:30;;;;;;;20.03;10.77;;;3.70;1.00;;;;;;5524032;25;20223;-64
2024/04/21 11:18:17;;;;;;;9.37;6.03;;;3.70;1.00;;;;;;5520797;25;20287;-64
2024/04/21 11:21:07;;;;;;;18.27;10.23;;;4.10;1.00;;;;;;5521556;25;20265;-64
2024/04/21 11:23:53;;;;;;;16.10;8.77;;;4.40;99.90;;;;;;5527858;25;20271;-65
2024/04/21 11:26:43;;;;;;;17.13;10.30;;;4.50;1.00;;;;;;5519625;25;20710;-64
2024/04/21 11:29:32;;;;;;;18.37;10.60;;;4.50;1.00;;;;;;5520479;25;20900;-64
2024/04/21 11:32:24;;;;;;;17.10;10.63;;;4.10;99.90;;;;;;5537414;25;20231;-64
2024/04/21 11:35:10;;;;;;;16.60;10.73;;;4.00;99.90;;;;;;5520165;25;20231;-64
2024/04/21 11:38:00;;;;;;;18.57;10.20;;;4.00;99.90;;;;;;5549470;25;20218;-65
2024/04/21 11:40:47;;;;;;;17.63;10.33;;;3.90;99.90;;;;;;5535081;25;20334;-66
2024/04/21 11:43:36;;;;;;;13.47;6.67;;;4.00;1.00;;;;;;5521908;25;20562;-64
2024/04/21 11:46:23;;;;;;;19.00;9.67;;;4.20;1.00;;;;;;5520065;25;20227;-64
2024/04/21 11:49:15;;;;;;;20.27;11.67;;;4.20;1.00;;;;;;5546993;25;20222;-64
2024/04/21 11:52:01;;;;;;;18.07;10.70;;;4.20;1.00;;;;;;5527143;25;20326;-64
2024/04/21 11:54:51;;;;;;;17.30;10.27;;;4.30;1.00;;;;;;5522302;25;20588;-64
2024/04/21 11:57:37;;;;;;;19.87;11.90;;;4.20;5.80;;;;;;5543201;25;20239;-64
2024/04/21 12:00:27;;;;;;;17.93;10.17;;;4.00;1.00;;;;;;5520858;25;20314;-64
2024/04/21 12:03:13;;;;;;;18.23;11.90;;;4.10;99.90;;;;;;5522100;25;20310;-64
2024/04/21 12:06:06;;;;;;;6.33;3.40;;;4.30;99.90;;;;;;5519749;25;20722;-65
2024/04/21 12:08:52;;;;;;;19.63;10.57;;;4.30;1.00;;;;;;5519446;25;20303;-64
2024/04/21 12:11:42;;;;;;;14.43;8.83;;;4.30;1.00;;;;;;5521039;25;20223;-64
2024/04/21 12:14:29;;;;;;;19.27;12.20;;;4.30;1.00;;;;;;5521771;25;20235;-64
2024/04/21 12:17:18;;;;;;;20.60;12.70;;;4.40;99.90;;;;;;5531498;25;20262;-64
2024/04/21 12:20:06;;;;;;;19.37;11.40;;;4.30;1.00;;;;;;5540007;25;20243;-65
2024/04/21 12:22:58;;;;;;;11.10;6.13;;;4.30;84.80;;;;;;5520164;25;20306;-64
2024/04/21 12:25:44;;;;;;;13.70;7.80;;;4.40;53.50;;;;;;5523235;25;20227;-65
2024/04/21 12:28:34;;;;;;;18.63;10.27;;;4.20;21.10;;;;;;5520631;25;20944;-64
2024/04/21 12:31:20;;;;;;;17.80;10.47;;;4.20;1.00;;;;;;5520993;25;20371;-64
2024/04/21 12:34:10;;;;;;;12.37;7.10;;;4.10;99.90;;;;;;5518851;25;20220;-63
2024/04/21 12:36:56;;;;;;;7.77;4.97;;;4.10;1.00;;;;;;5538333;25;20302;-64
2024/04/21 12:39:48;;;;;;;17.33;10.87;;;3.90;73.40;;;;;;5524290;25;20223;-64
2024/04/21 12:42:35;;;;;;;14.73;8.60;;;4.00;1.00;;;;;;5530314;25;20227;-65
2024/04/21 12:45:24;;;;;;;12.60;7.87;;;4.10;99.90;;;;;;5525774;25;20296;-64
2024/04/21 12:48:11;;;;;;;15.70;9.47;;;4.10;48.30;;;;;;5539890;25;20266;-64
2024/04/21 12:51:00;;;;;;;18.13;9.87;;;4.00;99.90;;;;;;5538547;25;20219;-64
2024/04/21 12:53:47;;;;;;;14.33;8.30;;;4.00;1.00;;;;;;5518994;25;20227;-64
2024/04/21 12:56:39;;;;;;;13.73;8.87;;;3.70;1.00;;;;;;5519371;25;20266;-65
2024/04/21 12:59:26;;;;;;;13.00;8.43;;;3.80;99.90;;;;;;5523930;25;20314;-64
2024/04/21 13:02:15;;;;;;;13.10;8.80;;;4.10;99.90;;;;;;5521756;25;20220;-65
2024/04/21 13:05:02;;;;;;;13.97;7.97;;;4.40;99.90;;;;;;5522222;25;20227;-64
2024/04/21 13:07:51;;;;;;;12.10;8.07;;;4.60;99.90;;;;;;5521769;25;20272;-64
2024/04/21 13:10:38;;;;;;;10.70;5.90;;;4.80;1.00;;;;;;5523203;25;20239;-64
2024/04/21 13:13:30;;;;;;;9.57;6.90;;;4.90;99.90;;;;;;5542843;25;20222;-64
2024/04/21 13:16:17;;;;;;;8.50;5.17;;;5.10;99.90;;;;;;5527814;25;20311;-64
2024/04/21 13:19:08;;;;;;;10.80;6.57;;;5.00;7.60;;;;;;5528385;25;20228;-64
2024/04/21 13:21:54;;;;;;;8.20;3.93;;;5.10;1.00;;;;;;5520229;25;20241;-64
2024/04/21 13:24:43;;;;;;;11.30;7.63;;;5.00;1.00;;;;;;5525145;25;20223;-64
2024/04/21 13:27:32;;;;;;;12.03;7.27;;;5.00;99.90;;;;;;5519796;25;20282;-63
2024/04/21 13:30:24;;;;;;;13.17;8.03;;;4.80;99.90;;;;;;5532362;25;20339;-64
2024/04/21 13:33:11;;;;;;;13.40;8.50;;;4.40;1.00;;;;;;5531207;25;20799;-64
2024/04/21 13:36:00;;;;;;;3.83;2.23;;;4.40;1.00;;;;;;5539369;25;20223;-65
2024/04/21 13:38:47;;;;;;;14.37;8.40;;;4.30;1.00;;;;;;5549535;25;20242;-65
2024/04/21 13:41:36;;;;;;;16.07;9.23;;;4.20;1.00;;;;;;5518509;25;20219;-64
2024/04/21 13:44:26;;;;;;;17.10;9.67;;;4.20;1.00;;;;;;5520340;25;20223;-64
2024/04/21 13:47:15;;;;;;;16.60;10.30;;;4.30;1.00;;;;;;5530382;25;20333;-64
2024/04/21 13:50:05;;;;;;;12.53;7.87;;;4.50;99.90;;;;;;5545613;25;20554;-64
2024/04/21 13:52:51;;;;;;;8.83;5.53;;;4.50;99.90;;;;;;5529356;25;20889;-64
2024/04/21 13:55:41;;;;;;;10.47;7.80;;;4.70;99.90;;;;;;5520184;25;20603;-64
2024/04/21 13:58:27;;;;;;;9.53;6.87;;;4.70;52.10;;;;;;5521375;25;20311;-64
2024/04/21 14:01:17;;;;;;;12.30;7.60;;;4.40;99.90;;;;;;5534435;25;20678;-64
2024/04/21 14:04:10;;;;;;;11.27;7.37;;;4.40;99.90;;;;;;5522439;25;20740;-65
2024/04/21 14:06:57;;;;;;;7.13;5.20;;;4.40;13.40;;;;;;5526647;25;20278;-64
2024/04/21 14:09:46;;;;;;;9.93;7.27;;;4.30;1.00;;;;;;5523112;25;20335;-64
2024/04/21 14:12:33;;;;;;;12.93;6.47;;;4.20;1.00;;;;;;5545068;25;20694;-64
2024/04/21 14:15:22;;;;;;;7.00;4.40;;;4.10;99.90;;;;;;5524968;25;20848;-64
2024/04/21 14:18:08;;;;;;;8.20;6.03;;;4.20;99.90;;;;;;5528932;25;20223;-64
2024/04/21 14:21:00;;;;;;;8.00;6.10;;;4.10;1.00;;;;;;5520726;25;20231;-63
2024/04/21 14:23:47;;;;;;;9.77;6.33;;;4.00;99.90;;;;;;5522533;25;20228;-64
2024/04/21 14:26:36;;;;;;;12.30;7.50;;;4.00;1.00;;;;;;5521311;25;20734;-64
2024/04/21 14:29:23;;;;;;;12.40;8.30;;;3.90;34.40;;;;;;5523541;25;20286;-64
2024/04/21 14:32:13;;;;;;;7.77;5.20;;;3.90;1.00;;;;;;5523132;25;20223;-64
2024/04/21 14:35:00;;;;;;;11.07;7.97;;;3.90;1.00;;;;;;5522190;25;20274;-64
2024/04/21 14:37:52;;;;;;;11.70;7.73;;;3.90;99.90;;;;;;5525582;25;20302;-64